Olamon, Maine
Current Conditions -  °F | °C
As of 3:53 AM on Monday 22 Dec 2014 (Local Time) from KBGR Reporting Station
Overcast Overcast  
Wind Chill: -3°   Ceiling: 5000
Heat Index: -3°   Visibility: 9mi
Dew Point: -4°   Wind: 3mph
Humidity: 92%   Direction: 20°NNE
Pressure: 30.4"   Gusts: NA
Location:  45.12°N, 68.6°W
Report Text: KBGR 220853Z 02003KT 9SM OVC050 M03/M04 A3040 RMK AO2 SNE49 SLP298 P0000 60000 T10331044 50002
Loading
Personal Weather Stations






























Interactive Weather Map New forecast layout! Learn more

10-Day Weather Forecast

Advertisements
Track Severe Weather on mobile